Time;durP1;ratioP1;P1;durP2;ratioP2;P2;SDS_P1;SDS_P2;PMS_P1;PMS_P2;Temp;Humidity;BMP_temperature;BMP_pressure;BME280_temperature;BME280_humidity;BME280_pressure;Samples;Min_cycle;Max_cycle;Signal;HPM_P1;HPM_P2
2022/12/25 00:01:07;;;;;;;4.45;1.73;;;;;;;9.34;100.00;100477.38;20940924;28;20493;-72
2022/12/25 00:11:09;;;;;;;8.80;1.80;;;;;;;9.36;100.00;100480.81;20943410;28;20045;-73
2022/12/25 00:21:10;;;;;;;7.65;1.70;;;;;;;9.31;100.00;100466.06;20957223;28;20099;-72
2022/12/25 00:31:12;;;;;;;8.82;1.83;;;;;;;9.25;100.00;100462.63;20953577;28;20060;-73
2022/12/25 00:41:13;;;;;;;8.57;2.47;;;;;;;9.22;100.00;100464.41;20954862;28;20104;-73
2022/12/25 00:51:14;;;;;;;9.10;2.45;;;;;;;9.20;100.00;100477.50;20954484;28;20045;-74
2022/12/25 01:01:16;;;;;;;8.98;4.15;;;;;;;9.20;100.00;100467.03;20954445;28;20048;-74
2022/12/25 01:11:17;;;;;;;12.02;4.88;;;;;;;9.21;100.00;100481.81;20953403;28;20056;-74
2022/12/25 01:21:21;;;;;;;10.65;4.00;;;;;;;9.19;100.00;100460.06;20955782;28;20107;-75
2022/12/25 01:31:23;;;;;;;7.30;2.43;;;;;;;9.11;100.00;100474.09;20947935;28;20056;-73
2022/12/25 01:41:24;;;;;;;7.45;2.50;;;;;;;9.09;100.00;100481.06;20951538;28;20500;-73
2022/12/25 01:51:25;;;;;;;6.40;2.30;;;;;;;9.17;100.00;100494.94;20948720;28;20110;-74
2022/12/25 02:01:26;;;;;;;6.40;2.10;;;;;;;9.09;100.00;100466.25;20949783;28;20079;-74
2022/12/25 02:21:47;;;;;;;8.90;3.13;;;;;;;8.99;100.00;100444.56;20949109;28;20106;-74
2022/12/25 02:31:49;;;;;;;8.70;2.95;;;;;;;9.03;100.00;100455.00;20947991;28;20056;-74
2022/12/25 02:41:50;;;;;;;9.57;2.47;;;;;;;9.04;100.00;100465.44;20941866;28;20095;-74
2022/12/25 03:12:32;;;;;;;6.80;2.42;;;;;;;8.56;100.00;100404.03;20942513;28;20312;-73
2022/12/25 03:32:57;;;;;;;7.15;3.10;;;;;;;8.31;100.00;100432.88;20941815;28;20503;-73
2022/12/25 04:44:59;;;;;;;13.40;4.07;;;;;;;8.46;100.00;100346.69;20899026;28;20059;-76
2022/12/25 04:55:00;;;;;;;12.38;3.97;;;;;;;8.20;100.00;100359.03;20925105;28;20497;-76
2022/12/25 05:05:01;;;;;;;10.20;3.80;;;;;;;8.21;100.00;100356.41;20950980;28;20381;-75
2022/12/25 05:15:03;;;;;;;9.25;4.20;;;;;;;8.34;100.00;100341.53;20952012;28;20107;-74
2022/12/25 05:25:04;;;;;;;10.45;3.97;;;;;;;8.25;100.00;100328.56;20954030;28;20059;-74
2022/12/25 05:35:07;;;;;;;10.80;4.47;;;;;;;8.18;100.00;100321.66;20949730;28;20053;-74
2022/12/25 05:45:08;;;;;;;11.88;5.55;;;;;;;7.91;100.00;100307.94;20952646;28;20126;-73
2022/12/25 05:55:10;;;;;;;16.25;5.72;;;;;;;7.87;100.00;100327.09;20952460;28;20110;-75
2022/12/25 06:05:11;;;;;;;15.13;5.90;;;;;;;7.93;100.00;100316.59;20948444;28;20061;-75
2022/12/25 06:15:12;;;;;;;13.50;5.70;;;;;;;7.95;100.00;100314.88;20950125;28;20555;-75
2022/12/25 06:25:14;;;;;;;14.32;4.55;;;;;;;8.01;100.00;100315.72;20946575;28;20059;-75
2022/12/25 06:35:15;;;;;;;13.93;5.40;;;;;;;8.04;100.00;100307.84;20947010;28;20497;-73
2022/12/25 06:45:16;;;;;;;9.05;3.85;;;;;;;8.08;100.00;100320.00;20947902;28;20127;-75
2022/12/25 06:55:17;;;;;;;8.27;4.70;;;;;;;8.12;100.00;100316.50;20943819;28;20119;-75
2022/12/25 07:05:19;;;;;;;11.13;4.78;;;;;;;8.07;100.00;100321.75;20944317;28;20052;-74
2022/12/25 07:15:20;;;;;;;8.43;4.10;;;;;;;8.14;100.00;100306.91;20944862;28;20057;-74
2022/12/25 07:25:21;;;;;;;8.70;3.67;;;;;;;8.14;100.00;100286.03;20943239;28;20053;-74
2022/12/25 07:35:22;;;;;;;8.25;4.13;;;;;;;8.12;100.00;100287.81;20945411;28;20056;-73
2022/12/25 07:45:24;;;;;;;12.30;6.07;;;;;;;8.08;100.00;100291.31;20956723;28;20052;-77
2022/12/25 07:55:25;;;;;;;9.90;4.45;;;;;;;8.07;100.00;100302.63;20981123;28;20060;-75
2022/12/25 08:05:26;;;;;;;11.70;3.83;;;;;;;8.14;100.00;100320.81;20954707;28;20052;-73
2022/12/25 08:15:27;;;;;;;7.35;3.33;;;;;;;8.18;100.00;100326.88;20937563;28;20493;-73
2022/12/25 08:25:30;;;;;;;7.55;3.40;;;;;;;8.25;100.00;100315.53;20941266;28;20097;-73
2022/12/25 08:35:31;;;;;;;8.75;3.70;;;;;;;8.41;100.00;100279.78;20942837;28;20543;-74
2022/12/25 08:45:32;;;;;;;10.07;4.82;;;;;;;8.71;100.00;100250.75;20955106;28;20062;-74
2022/12/25 08:55:35;;;;;;;15.65;7.82;;;;;;;8.81;100.00;100267.19;20965448;28;20057;-74
2022/12/25 09:05:37;;;;;;;16.02;7.55;;;;;;;9.21;100.00;100275.44;20993470;28;20049;-74
2022/12/25 09:15:38;;;;;;;9.45;4.97;;;;;;;9.50;100.00;100306.44;20971121;28;20178;-75
2022/12/25 09:25:39;;;;;;;9.52;3.75;;;;;;;9.83;100.00;100311.25;20954242;28;20049;-76
2022/12/25 09:35:40;;;;;;;7.65;2.90;;;;;;;10.11;100.00;100293.38;20951816;28;20144;-76
2022/12/25 09:45:42;;;;;;;6.55;2.90;;;;;;;10.26;100.00;100272.25;20950725;28;20053;-76
2022/12/25 09:55:43;;;;;;;8.60;3.20;;;;;;;10.48;100.00;100251.78;20947076;28;20079;-76
2022/12/25 10:05:44;;;;;;;8.45;3.20;;;;;;;10.73;100.00;100252.19;20939207;28;20052;-75
2022/12/25 10:15:46;;;;;;;8.27;3.95;;;;;;;11.27;100.00;100231.06;20948625;28;20056;-75
2022/12/25 10:25:47;;;;;;;5.80;2.63;;;;;;;11.22;100.00;100227.66;20947265;28;20408;-74
2022/12/25 10:35:48;;;;;;;7.13;2.85;;;;;;;11.28;100.00;100214.44;20947213;28;20114;-75
2022/12/25 10:45:49;;;;;;;8.30;2.30;;;;;;;11.35;100.00;100205.53;20955270;28;20057;-75
2022/12/25 10:55:51;;;;;;;12.30;5.22;;;;;;;11.73;100.00;100190.66;20943124;28;20114;-75
2022/12/25 11:05:53;;;;;;;6.80;2.67;;;;;;;11.88;100.00;100179.88;20945101;28;20057;-75
2022/12/25 11:15:54;;;;;;;7.07;2.58;;;;;;;12.09;100.00;100159.22;20943183;28;20057;-76
2022/12/25 11:25:55;;;;;;;7.10;3.15;;;;;;;12.06;100.00;100142.66;20945665;28;20056;-75
2022/12/25 11:35:57;;;;;;;7.60;2.70;;;;;;;12.05;100.00;100143.56;20940340;28;20114;-75
2022/12/25 11:45:58;;;;;;;6.00;2.80;;;;;;;12.10;100.00;100129.47;21046120;22;20051;-73
2022/12/25 11:55:59;;;;;;;5.80;2.70;;;;;;;12.16;100.00;100108.28;21064527;28;20054;-71
2022/12/25 12:06:00;;;;;;;7.97;2.95;;;;;;;12.45;100.00;100095.22;21063436;28;20044;-71
2022/12/25 12:16:04;;;;;;;6.25;2.83;;;;;;;12.37;100.00;100099.84;21034433;28;20075;-72
2022/12/25 12:26:06;;;;;;;6.57;2.40;;;;;;;12.47;100.00;100096.06;21041385;28;20051;-72
2022/12/25 12:36:07;;;;;;;5.45;2.40;;;;;;;12.51;100.00;100102.94;21036804;28;20508;-71
2022/12/25 12:46:08;;;;;;;5.38;2.38;;;;;;;12.44;100.00;100085.63;21038061;28;20048;-71
2022/12/25 12:56:10;;;;;;;5.20;2.22;;;;;;;12.51;100.00;100066.19;21038387;28;20442;-72
2022/12/25 13:06:11;;;;;;;6.57;2.63;;;;;;;12.24;100.00;100077.44;21038014;28;20048;-72
2022/12/25 13:16:12;;;;;;;9.23;3.20;;;;;;;11.95;100.00;100081.72;21036978;28;20052;-71
2022/12/25 13:26:14;;;;;;;7.97;3.20;;;;;;;11.71;100.00;100090.19;21036543;28;20048;-72
2022/12/25 13:36:15;;;;;;;9.60;4.25;;;;;;;11.77;100.00;100054.16;21034073;28;20459;-71
2022/12/25 13:46:16;;;;;;;14.20;6.78;;;;;;;11.93;100.00;100051.16;21033537;28;20467;-72
2022/12/25 13:56:18;;;;;;;9.52;5.20;;;;;;;12.04;100.00;100039.50;21035527;28;20051;-71
2022/12/25 14:06:19;;;;;;;6.63;3.33;;;;;;;12.11;100.00;100041.94;21030108;28;20206;-71
2022/12/25 14:16:20;;;;;;;6.90;2.80;;;;;;;12.15;100.00;100049.69;21057136;28;20048;-71
2022/12/25 14:26:21;;;;;;;6.57;2.72;;;;;;;11.99;100.00;100065.00;21054776;28;20361;-71
2022/12/25 14:36:23;;;;;;;5.13;2.60;;;;;;;11.77;100.00;100076.91;21032662;28;20056;-71
2022/12/25 14:46:24;;;;;;;5.18;2.65;;;;;;;11.55;100.00;100051.25;21027804;28;20338;-70
2022/12/25 14:56:26;;;;;;;5.97;3.15;;;;;;;11.24;100.00;100055.53;21028889;28;20044;-72
2022/12/25 15:06:28;;;;;;;11.25;5.75;;;;;;;11.07;100.00;100076.91;21027200;28;20052;-71
2022/12/25 15:16:29;;;;;;;7.65;4.57;;;;;;;10.88;100.00;100065.09;20985505;28;20056;-71
2022/12/25 15:26:30;;;;;;;8.63;5.50;;;;;;;10.74;100.00;100081.13;21025539;28;20083;-71
2022/12/25 15:36:32;;;;;;;8.93;4.97;;;;;;;10.62;100.00;100071.75;21026636;28;20048;-71
2022/12/25 15:46:34;;;;;;;9.82;6.03;;;;;;;10.55;100.00;100088.50;21025062;28;20492;-71
2022/12/25 15:56:35;;;;;;;17.70;10.35;;;;;;;10.42;100.00;100100.09;21019023;28;20056;-71
2022/12/25 16:06:36;;;;;;;17.55;11.05;;;;;;;10.21;100.00;100102.22;21021916;28;20451;-70
2022/12/25 16:16:38;;;;;;;20.60;11.20;;;;;;;9.89;100.00;100100.19;21024219;28;20060;-70
2022/12/25 16:26:39;;;;;;;12.93;7.22;;;;;;;9.78;100.00;100099.53;21022786;28;20056;-72
2022/12/25 16:36:40;;;;;;;17.75;8.75;;;;;;;9.63;100.00;100061.44;21024485;28;20094;-71
2022/12/25 16:46:42;;;;;;;14.13;7.28;;;;;;;9.55;100.00;100085.97;21024037;28;20535;-71
2022/12/25 16:56:43;;;;;;;19.42;10.55;;;;;;;9.48;100.00;100085.19;21026056;28;20517;-70
2022/12/25 17:06:44;;;;;;;32.35;19.00;;;;;;;9.27;100.00;100104.69;21048165;28;20110;-70
2022/12/25 17:16:45;;;;;;;22.20;13.00;;;;;;;9.02;100.00;100129.44;21031818;28;20110;-70
2022/12/25 17:26:47;;;;;;;18.95;11.48;;;;;;;8.79;100.00;100107.09;21033822;28;20113;-70
2022/12/25 17:36:48;;;;;;;12.05;7.32;;;;;;;8.66;100.00;100118.59;21028334;28;20463;-70
2022/12/25 17:46:49;;;;;;;16.83;10.00;;;;;;;8.64;100.00;100131.66;20954977;22;20134;-74
2022/12/25 17:56:51;;;;;;;18.65;10.63;;;;;;;8.50;100.00;100122.28;20859960;28;20485;-73
2022/12/25 18:06:52;;;;;;;17.00;10.30;;;;;;;8.31;100.00;100111.16;20860165;28;20057;-73
2022/12/25 18:16:54;;;;;;;19.35;13.35;;;;;;;8.47;100.00;100121.41;20861129;28;20053;-73
2022/12/25 18:26:55;;;;;;;17.13;9.95;;;;;;;9.00;100.00;100104.19;20862658;28;20040;-73
2022/12/25 18:37:01;;;;;;;17.27;9.75;;;;;;;9.36;100.00;100125.47;20887865;28;20505;-74
2022/12/25 18:47:03;;;;;;;16.08;9.52;;;;;;;9.59;100.00;100142.53;20884601;28;20060;-73
2022/12/25 18:57:04;;;;;;;14.68;8.07;;;;;;;9.65;100.00;100137.22;20889866;28;20045;-73
2022/12/25 19:07:07;;;;;;;12.80;7.68;;;;;;;9.69;100.00;100124.06;20879205;28;20258;-74
2022/12/25 19:17:09;;;;;;;9.98;6.03;;;;;;;9.89;100.00;100121.09;20882819;28;20053;-73
2022/12/25 19:27:10;;;;;;;9.60;6.00;;;;;;;9.71;100.00;100100.50;20903396;28;20057;-73
2022/12/25 19:37:12;;;;;;;13.02;7.40;;;;;;;9.46;100.00;100098.28;20899904;28;20094;-73
2022/12/25 19:47:13;;;;;;;10.30;5.68;;;;;;;9.37;100.00;100094.97;20884194;28;20087;-74
2022/12/25 19:57:14;;;;;;;11.45;7.22;;;;;;;9.21;100.00;100099.56;20875823;28;20052;-74
2022/12/25 20:07:15;;;;;;;10.38;6.13;;;;;;;9.40;100.00;100108.84;20859246;28;20057;-73
2022/12/25 20:17:17;;;;;;;8.35;5.00;;;;;;;9.46;100.00;100120.94;20872799;28;20143;-73
2022/12/25 20:27:18;;;;;;;8.70;5.18;;;;;;;9.51;100.00;100116.50;20870998;28;20049;-74
2022/12/25 20:37:19;;;;;;;9.25;4.70;;;;;;;9.54;100.00;100118.22;20876384;28;20068;-73
2022/12/25 20:47:21;;;;;;;9.95;4.60;;;;;;;9.65;100.00;100132.84;20895917;28;20076;-74
2022/12/25 20:57:22;;;;;;;10.88;4.65;;;;;;;9.54;100.00;100129.53;20896125;28;20048;-74
2022/12/25 21:07:23;;;;;;;6.90;3.90;;;;;;;9.71;100.00;100137.97;20882753;28;20061;-73
2022/12/25 21:17:25;;;;;;;8.50;4.10;;;;;;;9.78;100.00;100136.13;20885728;28;20057;-73
2022/12/25 21:27:26;;;;;;;8.75;4.28;;;;;;;9.96;100.00;100138.41;20880727;28;20053;-74
2022/12/25 21:37:27;;;;;;;7.60;3.90;;;;;;;9.84;100.00;100137.75;20875593;28;20108;-74
2022/12/25 21:47:28;;;;;;;7.60;3.78;;;;;;;9.71;100.00;100129.25;20891432;28;20088;-73
2022/12/25 21:57:50;;;;;;;7.82;3.88;;;;;;;9.62;100.00;100147.69;20896133;28;20139;-74
2022/12/25 22:07:51;;;;;;;8.73;4.50;;;;;;;9.70;100.00;100153.69;20894679;28;20053;-76
2022/12/25 22:28:12;;;;;;;7.95;4.00;;;;;;;9.57;100.00;100167.81;20892146;28;20107;-75
2022/12/25 22:38:13;;;;;;;7.57;3.72;;;;;;;9.82;100.00;100208.41;20892331;28;20044;-75
2022/12/25 22:48:15;;;;;;;6.88;3.30;;;;;;;9.71;100.00;100225.97;20889760;28;20056;-74
2022/12/25 22:58:16;;;;;;;10.55;3.70;;;;;;;10.42;100.00;100220.50;20889958;28;20635;-75
2022/12/25 23:08:17;;;;;;;7.38;2.90;;;;;;;11.06;100.00;100224.47;20892505;28;20053;-73
2022/12/25 23:39:03;;;;;;;7.30;3.45;;;;;;;10.70;100.00;100226.09;20874162;28;20049;-73
2022/12/25 23:49:10;;;;;;;6.13;3.13;;;;;;;10.60;100.00;100235.00;20893127;28;20115;-73
2022/12/25 23:59:11;;;;;;;7.53;3.67;;;;;;;10.39;100.00;100224.00;20894340;28;20111;-75
